Time;durP1;ratioP1;P1;durP2;ratioP2;P2;SDS_P1;SDS_P2;PMS_P1;PMS_P2;Temp;Humidity;BMP_temperature;BMP_pressure;BME280_temperature;BME280_humidity;BME280_pressure;Samples;Min_cycle;Max_cycle;Signal;HPM_P1;HPM_P2
2020/12/31 00:00:46;;;;;;;9.52;8.52;;;5.00;99.90;;;;;;5071735;28;20660;-47
2020/12/31 00:03:12;;;;;;;9.70;8.70;;;5.10;99.90;;;;;;5071806;28;20591;-48
2020/12/31 00:05:39;;;;;;;9.50;8.02;;;5.30;99.90;;;;;;5074428;28;20194;-45
2020/12/31 00:08:05;;;;;;;10.00;8.63;;;5.10;99.90;;;;;;5072072;28;20707;-46
2020/12/31 00:10:32;;;;;;;10.80;7.93;;;5.10;99.90;;;;;;5071581;28;20199;-46
2020/12/31 00:12:59;;;;;;;11.68;8.68;;;5.20;99.90;;;;;;5071880;28;20219;-47
2020/12/31 00:15:26;;;;;;;10.02;8.98;;;4.50;99.90;;;;;;5071818;28;20270;-46
2020/12/31 00:17:52;;;;;;;11.75;9.30;;;5.20;99.90;;;;;;5071549;28;20258;-46
2020/12/31 00:20:19;;;;;;;11.93;7.70;;;5.20;99.90;;;;;;5071817;28;20199;-48
2020/12/31 00:22:45;;;;;;;11.27;9.75;;;5.30;99.90;;;;;;5071316;28;20194;-46
2020/12/31 00:25:12;;;;;;;13.43;10.02;;;5.10;99.90;;;;;;5071603;28;20196;-48
2020/12/31 00:27:38;;;;;;;11.70;8.70;;;5.10;99.90;;;;;;5071599;28;20268;-47
2020/12/31 00:30:08;;;;;;;11.57;8.15;;;5.50;99.90;;;;;;5071454;28;20194;-49
2020/12/31 00:32:35;;;;;;;9.38;8.32;;;5.20;99.90;;;;;;5071077;28;20199;-46
2020/12/31 00:35:02;;;;;;;9.10;8.02;;;5.30;99.90;;;;;;5071333;28;20211;-44
2020/12/31 00:37:33;;;;;;;8.43;7.53;;;5.20;99.90;;;;;;5071668;28;20215;-47
2020/12/31 00:40:00;;;;;;;10.75;8.30;;;5.10;99.90;;;;;;5071140;28;20261;-46
2020/12/31 00:42:26;;;;;;;9.07;7.47;;;5.20;99.90;;;;;;5071034;28;20239;-47
2020/12/31 00:44:53;;;;;;;11.48;8.43;;;5.40;99.90;;;;;;5071192;28;20721;-47
2020/12/31 00:47:20;;;;;;;8.57;7.47;;;5.50;99.90;;;;;;5071237;28;20188;-47
2020/12/31 00:49:47;;;;;;;9.07;7.93;;;5.20;99.90;;;;;;5071315;28;20187;-48
2020/12/31 00:52:13;;;;;;;10.25;8.68;;;5.50;99.90;;;;;;5071061;28;20237;-46
2020/12/31 00:54:40;;;;;;;9.68;7.80;;;5.50;99.90;;;;;;5069615;28;20695;-45
2020/12/31 00:57:08;;;;;;;10.18;8.43;;;5.30;99.90;;;;;;5069721;28;20211;-46
2020/12/31 00:59:35;;;;;;;9.70;8.45;;;5.40;99.90;;;;;;5069227;28;20227;-46
2020/12/31 01:02:02;;;;;;;11.15;8.02;;;5.30;99.90;;;;;;5071011;28;20203;-46
2020/12/31 01:04:30;;;;;;;9.80;8.70;;;5.50;99.90;;;;;;5070772;28;20195;-47
2020/12/31 01:06:56;;;;;;;9.50;8.50;;;5.40;99.90;;;;;;5071069;28;20667;-46
2020/12/31 01:09:23;;;;;;;11.30;8.88;;;5.40;99.90;;;;;;5071024;28;20238;-43
2020/12/31 01:11:49;;;;;;;10.95;9.32;;;5.10;99.90;;;;;;5070998;28;20202;-48
2020/12/31 01:14:16;;;;;;;12.27;8.60;;;5.30;99.90;;;;;;5070709;28;20331;-47
2020/12/31 01:16:48;;;;;;;10.30;8.50;;;5.10;99.90;;;;;;5070859;28;20191;-49
2020/12/31 01:19:14;;;;;;;10.90;8.68;;;5.20;99.90;;;;;;5071014;28;20254;-46
2020/12/31 01:21:45;;;;;;;10.32;8.05;;;5.10;99.90;;;;;;5070714;28;20577;-46
2020/12/31 01:24:11;;;;;;;10.35;8.35;;;5.30;99.90;;;;;;5071438;28;20572;-47
2020/12/31 01:26:38;;;;;;;9.40;8.32;;;5.10;99.90;;;;;;5070936;28;20229;-47
2020/12/31 01:29:05;;;;;;;9.32;8.35;;;5.00;99.90;;;;;;5071160;28;20618;-46
2020/12/31 01:31:31;;;;;;;10.93;8.82;;;5.10;99.90;;;;;;5070708;28;20188;-47
2020/12/31 01:33:58;;;;;;;10.25;9.02;;;5.20;99.90;;;;;;5070452;28;20683;-46
2020/12/31 01:36:25;;;;;;;9.95;8.38;;;5.20;99.90;;;;;;5070940;28;20187;-44
2020/12/31 01:38:53;;;;;;;11.77;8.93;;;5.20;99.90;;;;;;5070725;28;20309;-48
2020/12/31 01:41:24;;;;;;;10.50;9.07;;;5.40;99.90;;;;;;5070690;28;20556;-48
2020/12/31 01:44:07;;;;;;;9.27;7.60;;;5.30;99.90;;;;;;5070315;28;20197;-47
2020/12/31 01:46:35;;;;;;;10.45;8.57;;;5.40;99.90;;;;;;5070463;28;20592;-47
2020/12/31 01:49:03;;;;;;;9.00;8.20;;;5.30;99.90;;;;;;5070506;28;20211;-46
2020/12/31 01:51:31;;;;;;;12.20;9.85;;;4.60;99.90;;;;;;5070670;28;20215;-46
2020/12/31 01:53:58;;;;;;;10.77;9.00;;;5.10;99.90;;;;;;5070332;28;20187;-47
2020/12/31 01:56:28;;;;;;;10.38;8.90;;;5.10;99.90;;;;;;5070515;28;20199;-45
2020/12/31 01:58:55;;;;;;;9.63;8.65;;;5.10;99.90;;;;;;5070351;28;20212;-45
2020/12/31 02:01:22;;;;;;;9.18;8.27;;;5.40;99.90;;;;;;5070720;28;20547;-46
2020/12/31 02:03:49;;;;;;;10.95;9.77;;;5.30;99.90;;;;;;5070613;28;20203;-48
2020/12/31 02:06:16;;;;;;;11.50;9.48;;;5.40;99.90;;;;;;5070929;28;20648;-47
2020/12/31 02:08:45;;;;;;;10.18;9.00;;;5.10;99.90;;;;;;5070324;28;20207;-47
2020/12/31 02:11:14;;;;;;;10.65;9.55;;;5.10;99.90;;;;;;5071453;28;20234;-47
2020/12/31 02:13:40;;;;;;;9.57;8.57;;;5.10;99.90;;;;;;5073904;28;20188;-45
2020/12/31 02:16:10;;;;;;;12.05;9.70;;;5.30;99.90;;;;;;5074283;28;20226;-47
2020/12/31 02:18:49;;;;;;;9.40;8.30;;;5.10;99.90;;;;;;5073981;28;20268;-47
2020/12/31 02:21:18;;;;;;;12.90;8.73;;;4.80;99.90;;;;;;5073838;28;20191;-47
2020/12/31 02:23:46;;;;;;;9.90;7.50;;;5.40;99.90;;;;;;5073835;28;20196;-46
2020/12/31 02:26:12;;;;;;;9.02;8.05;;;5.20;99.90;;;;;;5073856;28;20637;-46
2020/12/31 02:28:39;;;;;;;10.85;9.10;;;5.10;99.90;;;;;;5073738;28;20223;-46
2020/12/31 02:31:05;;;;;;;12.15;8.00;;;5.00;99.90;;;;;;5073642;28;20195;-48
2020/12/31 02:33:32;;;;;;;10.73;8.68;;;5.20;99.90;;;;;;5073414;28;20675;-46
2020/12/31 02:35:59;;;;;;;12.77;7.85;;;5.30;99.90;;;;;;5073637;28;20277;-45
2020/12/31 02:38:25;;;;;;;11.05;8.52;;;5.50;99.90;;;;;;5073567;28;20687;-46
2020/12/31 02:40:53;;;;;;;9.40;7.55;;;5.20;99.90;;;;;;5075146;28;20199;-47
2020/12/31 02:43:19;;;;;;;10.15;8.45;;;5.20;99.90;;;;;;5073289;28;20211;-46
2020/12/31 02:45:46;;;;;;;9.65;8.50;;;5.00;99.90;;;;;;5073663;28;20199;-49
2020/12/31 02:48:12;;;;;;;10.02;8.13;;;5.10;99.90;;;;;;5073350;28;20285;-46
2020/12/31 02:50:39;;;;;;;10.90;8.68;;;5.20;99.90;;;;;;5073252;28;20202;-45
2020/12/31 02:53:05;;;;;;;9.50;8.20;;;5.20;99.90;;;;;;5073020;28;20202;-47
2020/12/31 02:55:31;;;;;;;23.38;20.80;;;5.20;99.90;;;;;;5073212;28;20242;-46
2020/12/31 02:57:59;;;;;;;9.95;8.43;;;5.50;99.90;;;;;;5073300;28;20713;-46
2020/12/31 03:00:25;;;;;;;10.90;8.88;;;5.40;99.90;;;;;;5073245;28;20227;-47
2020/12/31 03:02:52;;;;;;;9.40;8.10;;;5.30;99.90;;;;;;5072756;28;20195;-46
2020/12/31 03:05:19;;;;;;;13.25;8.25;;;5.30;99.90;;;;;;5073190;28;20210;-48
2020/12/31 03:07:46;;;;;;;9.65;7.93;;;5.30;99.90;;;;;;5073077;28;20260;-45
2020/12/31 03:10:12;;;;;;;10.60;8.70;;;5.50;99.90;;;;;;5073150;28;20187;-46
2020/12/31 03:12:39;;;;;;;8.80;7.78;;;5.30;99.90;;;;;;5072650;28;20630;-46
2020/12/31 03:15:11;;;;;;;10.18;8.82;;;5.50;99.90;;;;;;5071801;28;20219;-47
2020/12/31 03:17:38;;;;;;;11.48;9.35;;;5.60;99.90;;;;;;5073073;28;20611;-48
2020/12/31 03:20:05;;;;;;;13.68;8.35;;;5.30;99.90;;;;;;5072687;28;20664;-47
2020/12/31 03:22:31;;;;;;;11.43;9.05;;;5.50;99.90;;;;;;5071838;28;20192;-45
2020/12/31 03:24:58;;;;;;;9.18;7.50;;;5.10;99.90;;;;;;5072568;28;20191;-46
2020/12/31 03:27:24;;;;;;;9.75;7.82;;;5.30;99.90;;;;;;5071725;28;20222;-48
2020/12/31 03:29:51;;;;;;;10.85;8.20;;;5.50;99.90;;;;;;5071919;28;20198;-44
2020/12/31 03:32:19;;;;;;;9.60;8.60;;;5.20;99.90;;;;;;5072306;28;20544;-44
2020/12/31 03:34:46;;;;;;;12.23;9.20;;;5.10;99.90;;;;;;5072446;28;20246;-46
2020/12/31 03:37:13;;;;;;;9.43;8.25;;;5.60;99.90;;;;;;5072630;28;20188;-48
2020/12/31 03:39:40;;;;;;;12.27;9.35;;;5.50;99.90;;;;;;5072686;28;20207;-46
2020/12/31 03:42:07;;;;;;;10.35;9.25;;;5.10;99.90;;;;;;5072368;28;20690;-46
2020/12/31 03:44:34;;;;;;;10.20;8.70;;;5.40;99.90;;;;;;5072368;28;20188;-47
2020/12/31 03:47:00;;;;;;;9.23;7.80;;;5.40;99.90;;;;;;5072153;28;20191;-47
2020/12/31 03:49:27;;;;;;;9.80;8.23;;;5.30;99.90;;;;;;5071939;28;20195;-47
2020/12/31 03:51:54;;;;;;;11.43;8.73;;;5.20;99.90;;;;;;5072362;28;20196;-47
2020/12/31 03:54:20;;;;;;;11.63;10.07;;;5.40;99.90;;;;;;5071891;28;20672;-47
2020/12/31 03:56:47;;;;;;;11.10;9.15;;;5.20;99.90;;;;;;5072322;28;20191;-45
2020/12/31 03:59:13;;;;;;;10.00;8.93;;;5.10;99.90;;;;;;5072400;28;20211;-48
2020/12/31 04:01:40;;;;;;;12.18;9.13;;;5.10;99.90;;;;;;5072192;28;20280;-46
2020/12/31 04:04:06;;;;;;;10.70;8.80;;;5.00;99.90;;;;;;5071365;28;20191;-49
2020/12/31 04:06:34;;;;;;;12.88;8.77;;;5.20;99.90;;;;;;5071908;28;20194;-45
2020/12/31 04:09:00;;;;;;;13.43;10.20;;;4.90;99.90;;;;;;5071712;28;20219;-46
2020/12/31 04:11:27;;;;;;;14.00;9.20;;;5.10;99.90;;;;;;5071783;28;20230;-47
2020/12/31 04:13:53;;;;;;;9.52;8.52;;;4.80;99.90;;;;;;5071476;28;20214;-46
2020/12/31 04:16:20;;;;;;;10.05;9.00;;;4.90;99.90;;;;;;5071566;28;20219;-45
2020/12/31 04:18:46;;;;;;;10.60;8.75;;;5.20;99.90;;;;;;5071454;28;20223;-42
2020/12/31 04:21:13;;;;;;;11.25;9.60;;;5.30;99.90;;;;;;5071629;28;20214;-47
2020/12/31 04:23:40;;;;;;;10.43;9.30;;;5.00;99.90;;;;;;5071076;28;20258;-47
2020/12/31 04:26:10;;;;;;;11.48;9.05;;;5.20;99.90;;;;;;5071694;28;20188;-46
2020/12/31 04:28:37;;;;;;;11.23;8.43;;;4.90;99.90;;;;;;5071620;28;20687;-47
2020/12/31 04:31:04;;;;;;;10.38;8.98;;;4.90;99.90;;;;;;5071398;28;20197;-47
2020/12/31 04:33:30;;;;;;;11.88;9.63;;;5.30;99.90;;;;;;5071044;28;20289;-46
2020/12/31 04:35:57;;;;;;;9.75;8.75;;;5.00;99.90;;;;;;5071375;28;20218;-43
2020/12/31 04:38:23;;;;;;;11.02;9.90;;;5.10;99.90;;;;;;5071436;28;20211;-48
2020/12/31 04:40:51;;;;;;;11.25;9.40;;;4.80;99.90;;;;;;5071625;28;20240;-47
2020/12/31 04:43:17;;;;;;;11.55;10.35;;;4.90;99.90;;;;;;5071010;28;20191;-47
2020/12/31 04:45:44;;;;;;;13.30;10.88;;;5.00;99.90;;;;;;5071086;28;20691;-45
2020/12/31 04:48:22;;;;;;;12.15;10.05;;;5.20;99.90;;;;;;5071223;28;20211;-45
2020/12/31 04:50:49;;;;;;;14.05;9.20;;;5.20;99.90;;;;;;5071544;28;20202;-43
2020/12/31 04:53:16;;;;;;;14.32;10.07;;;4.90;99.90;;;;;;5070860;28;20193;-48
2020/12/31 04:55:44;;;;;;;13.05;10.38;;;5.30;99.90;;;;;;5071107;28;20243;-46
2020/12/31 04:58:13;;;;;;;12.10;10.38;;;5.30;99.90;;;;;;5071970;28;20234;-48
2020/12/31 05:00:41;;;;;;;13.32;9.95;;;5.00;99.90;;;;;;5071091;28;20217;-47
2020/12/31 05:03:09;;;;;;;12.73;9.63;;;5.10;99.90;;;;;;5070552;28;20230;-47
2020/12/31 05:05:36;;;;;;;13.52;10.40;;;5.00;99.90;;;;;;5071126;28;20183;-47
2020/12/31 05:08:04;;;;;;;20.38;10.40;;;5.00;99.90;;;;;;5070968;28;20215;-46
2020/12/31 05:10:31;;;;;;;11.60;10.18;;;4.90;99.90;;;;;;5070889;28;20206;-46
2020/12/31 05:12:59;;;;;;;13.07;9.48;;;5.10;99.90;;;;;;5070558;28;20257;-45
2020/12/31 05:15:37;;;;;;;10.77;9.65;;;4.90;99.90;;;;;;5071533;28;20211;-45
2020/12/31 05:18:17;;;;;;;13.63;9.30;;;5.00;99.90;;;;;;5071412;28;20277;-46
2020/12/31 05:20:46;;;;;;;11.77;9.20;;;4.90;99.90;;;;;;5069410;28;20206;-48
2020/12/31 05:23:13;;;;;;;13.52;10.20;;;5.40;99.90;;;;;;5071083;28;20199;-46
2020/12/31 05:25:40;;;;;;;12.15;9.93;;;5.20;99.90;;;;;;5070707;28;20191;-48
2020/12/31 05:28:27;;;;;;;12.27;10.40;;;5.10;99.90;;;;;;5070881;28;20219;-47
2020/12/31 05:30:57;;;;;;;11.90;10.10;;;5.20;99.90;;;;;;5070934;28;20187;-45
2020/12/31 05:33:30;;;;;;;12.40;9.18;;;5.10;99.90;;;;;;5070526;28;20187;-46
2020/12/31 05:36:16;;;;;;;12.93;10.50;;;5.20;99.90;;;;;;5070734;28;20210;-48
2020/12/31 05:38:43;;;;;;;10.63;9.07;;;5.40;99.90;;;;;;5070869;28;20695;-48
2020/12/31 05:41:11;;;;;;;14.95;9.63;;;5.00;99.90;;;;;;5070865;28;20195;-47
2020/12/31 05:43:39;;;;;;;11.45;9.90;;;5.00;99.90;;;;;;5070519;28;20299;-45
2020/12/31 05:46:08;;;;;;;14.80;9.95;;;5.10;99.90;;;;;;5071583;28;20195;-48
2020/12/31 05:48:35;;;;;;;12.98;10.35;;;5.10;99.90;;;;;;5074405;28;20706;-47
2020/12/31 05:51:23;;;;;;;11.93;9.68;;;5.30;99.90;;;;;;5074413;28;20221;-46
2020/12/31 05:53:50;;;;;;;12.35;9.85;;;4.50;99.90;;;;;;5074172;28;20250;-47
2020/12/31 05:56:18;;;;;;;15.43;9.48;;;5.10;99.90;;;;;;5074548;28;20288;-48
2020/12/31 05:58:46;;;;;;;21.25;15.43;;;5.20;99.90;;;;;;5074314;28;20230;-47
2020/12/31 06:01:14;;;;;;;12.10;9.85;;;5.10;99.90;;;;;;5074623;28;20196;-45
2020/12/31 06:03:48;;;;;;;11.60;10.20;;;5.10;99.90;;;;;;5073926;28;20859;-47
2020/12/31 06:06:18;;;;;;;12.00;9.10;;;5.30;99.90;;;;;;5074236;28;20211;-46
2020/12/31 06:08:56;;;;;;;13.23;10.73;;;4.90;99.90;;;;;;5074572;28;20609;-48
2020/12/31 06:11:35;;;;;;;12.52;10.38;;;5.00;99.90;;;;;;5074241;28;20264;-47
2020/12/31 06:14:05;;;;;;;14.80;9.80;;;5.10;99.90;;;;;;5073674;28;20223;-47
2020/12/31 06:16:38;;;;;;;13.70;10.85;;;4.70;99.90;;;;;;5073904;28;20230;-48
2020/12/31 06:19:36;;;;;;;14.02;9.98;;;4.70;99.90;;;;;;5072989;28;20280;-45
2020/12/31 06:22:04;;;;;;;14.82;11.05;;;4.60;99.90;;;;;;5050244;28;20196;-46
2020/12/31 06:24:39;;;;;;;11.70;9.80;;;4.70;99.90;;;;;;5067759;28;20218;-45
2020/12/31 06:27:07;;;;;;;14.00;10.60;;;4.70;99.90;;;;;;5072600;28;20198;-47
2020/12/31 06:29:45;;;;;;;13.65;9.80;;;4.60;99.90;;;;;;5072622;28;20203;-47
2020/12/31 06:32:17;;;;;;;15.02;11.38;;;4.70;99.90;;;;;;5072636;28;20562;-46
2020/12/31 06:34:44;;;;;;;12.80;10.30;;;4.80;99.90;;;;;;5073587;28;20629;-49
2020/12/31 06:37:12;;;;;;;13.45;9.68;;;4.60;99.90;;;;;;5072468;28;20631;-46
2020/12/31 06:39:40;;;;;;;12.25;9.00;;;4.70;99.90;;;;;;5072534;28;20686;-49
2020/12/31 06:42:06;;;;;;;12.40;9.40;;;4.70;99.90;;;;;;5072365;28;20192;-47
2020/12/31 06:44:33;;;;;;;9.98;8.98;;;4.70;99.90;;;;;;5072129;28;20199;-44
2020/12/31 06:47:00;;;;;;;10.10;8.85;;;4.90;99.90;;;;;;5072358;28;20202;-46
2020/12/31 06:49:53;;;;;;;15.55;9.85;;;5.00;99.90;;;;;;5072282;28;20249;-46
2020/12/31 06:52:21;;;;;;;16.40;10.30;;;5.10;99.90;;;;;;5071955;28;20278;-47
2020/12/31 06:54:48;;;;;;;11.05;9.82;;;4.60;99.90;;;;;;5072195;28;20696;-48
2020/12/31 06:57:38;;;;;;;13.82;10.60;;;4.20;99.90;;;;;;5071502;28;20659;-48
2020/12/31 07:00:06;;;;;;;12.05;9.18;;;4.70;99.90;;;;;;5072125;28;20207;-48
2020/12/31 07:02:47;;;;;;;12.90;10.05;;;4.60;99.90;;;;;;5071489;28;20244;-48
2020/12/31 07:05:22;;;;;;;11.93;10.20;;;4.50;99.90;;;;;;5070326;28;20709;-46
2020/12/31 07:07:49;;;;;;;13.45;10.15;;;4.60;99.90;;;;;;5071931;28;20211;-46
2020/12/31 07:10:16;;;;;;;12.15;9.82;;;4.70;99.90;;;;;;5072292;28;20302;-44
2020/12/31 07:12:45;;;;;;;11.82;9.50;;;4.30;99.90;;;;;;5071680;28;20195;-46
2020/12/31 07:15:14;;;;;;;12.55;10.15;;;4.80;99.90;;;;;;5071946;28;20687;-45
2020/12/31 07:17:41;;;;;;;11.27;9.23;;;4.30;99.90;;;;;;5049088;28;644177;-47
2020/12/31 07:20:10;;;;;;;13.30;9.95;;;4.80;99.90;;;;;;5072876;28;20192;-48
2020/12/31 07:22:38;;;;;;;10.90;9.00;;;4.70;99.90;;;;;;5072030;28;20723;-47
2020/12/31 07:25:07;;;;;;;10.98;9.45;;;4.60;99.90;;;;;;5072516;28;20225;-48
2020/12/31 07:27:35;;;;;;;14.18;10.02;;;4.60;99.90;;;;;;5072626;28;20223;-47
2020/12/31 07:30:13;;;;;;;14.38;10.90;;;4.40;99.90;;;;;;5072552;28;20210;-47
2020/12/31 07:33:00;;;;;;;15.30;9.45;;;4.30;99.90;;;;;;5072439;28;20498;-46
2020/12/31 07:35:37;;;;;;;13.55;11.00;;;4.70;99.90;;;;;;5072366;28;20548;-47
2020/12/31 07:38:06;;;;;;;14.27;10.82;;;4.50;99.90;;;;;;5071943;28;20215;-48
2020/12/31 07:40:38;;;;;;;14.95;10.50;;;4.40;99.90;;;;;;5072464;28;20195;-46
2020/12/31 07:43:06;;;;;;;12.00;10.80;;;4.30;99.90;;;;;;5071929;28;20248;-45
2020/12/31 07:45:32;;;;;;;12.35;9.68;;;4.50;99.90;;;;;;5072508;28;20191;-45
2020/12/31 07:48:00;;;;;;;12.00;10.63;;;4.30;99.90;;;;;;5072171;28;20214;-47
2020/12/31 07:50:27;;;;;;;14.63;10.48;;;4.30;99.90;;;;;;5072131;28;20187;-46
2020/12/31 07:52:54;;;;;;;12.13;10.75;;;4.30;99.90;;;;;;5072905;28;20222;-49
2020/12/31 07:55:21;;;;;;;11.57;10.30;;;4.40;99.90;;;;;;5072276;28;20684;-48
2020/12/31 07:57:49;;;;;;;13.45;10.32;;;4.30;99.90;;;;;;5071695;28;20207;-46
2020/12/31 08:00:18;;;;;;;10.73;9.60;;;4.60;99.90;;;;;;5071591;28;20203;-47
2020/12/31 08:02:51;;;;;;;12.88;9.88;;;4.50;99.90;;;;;;5071892;28;20191;-45
2020/12/31 08:05:19;;;;;;;12.52;10.23;;;4.70;99.90;;;;;;5071579;28;20187;-47
2020/12/31 08:07:50;;;;;;;12.38;10.00;;;4.50;99.90;;;;;;5072170;28;20578;-48
2020/12/31 08:10:17;;;;;;;10.50;8.30;;;4.60;99.90;;;;;;5071590;28;20602;-48
2020/12/31 08:12:53;;;;;;;12.23;9.07;;;4.70;99.90;;;;;;5071230;28;20317;-47
2020/12/31 08:15:21;;;;;;;13.45;11.82;;;4.90;99.90;;;;;;5071712;28;20587;-47
2020/12/31 08:17:52;;;;;;;14.63;10.20;;;4.60;99.90;;;;;;5071464;28;20219;-47
2020/12/31 08:20:20;;;;;;;9.63;8.30;;;4.50;99.90;;;;;;5071388;28;20195;-48
2020/12/31 08:22:51;;;;;;;10.55;8.90;;;4.70;99.90;;;;;;5071750;28;20333;-48
2020/12/31 08:25:24;;;;;;;12.45;10.07;;;4.60;99.90;;;;;;5071503;28;20526;-47
2020/12/31 08:27:54;;;;;;;13.13;9.70;;;5.00;99.90;;;;;;5071335;28;20218;-46
2020/12/31 08:30:21;;;;;;;14.57;9.30;;;4.90;99.90;;;;;;5072156;28;20547;-46
2020/12/31 08:32:53;;;;;;;13.00;9.35;;;5.10;99.90;;;;;;5070998;28;20221;-46
2020/12/31 08:35:22;;;;;;;11.25;9.38;;;4.90;99.90;;;;;;5071295;28;20650;-48
2020/12/31 08:37:58;;;;;;;11.35;10.00;;;4.90;99.90;;;;;;5071644;28;20561;-46
2020/12/31 08:40:24;;;;;;;10.27;8.57;;;5.10;99.90;;;;;;5071164;28;20199;-47
2020/12/31 08:42:55;;;;;;;10.25;8.63;;;5.00;99.90;;;;;;5070951;28;20192;-46
2020/12/31 08:45:27;;;;;;;9.93;8.55;;;5.00;99.90;;;;;;5070912;28;20198;-47
2020/12/31 08:48:06;;;;;;;10.23;9.13;;;5.10;99.90;;;;;;5071266;28;20779;-46
2020/12/31 08:50:33;;;;;;;10.07;8.15;;;5.30;99.90;;;;;;5069732;28;20203;-47
2020/12/31 08:53:01;;;;;;;11.27;8.93;;;5.20;99.90;;;;;;5070619;28;20270;-48
2020/12/31 08:55:28;;;;;;;11.00;7.97;;;5.10;99.90;;;;;;5070904;28;20257;-46
2020/12/31 08:58:13;;;;;;;12.98;9.00;;;5.20;99.90;;;;;;5070678;28;20306;-47
2020/12/31 09:00:40;;;;;;;12.85;9.23;;;5.30;99.90;;;;;;5071046;28;20199;-47
2020/12/31 09:03:06;;;;;;;15.20;9.65;;;5.20;99.90;;;;;;5071011;28;20253;-48
2020/12/31 09:05:33;;;;;;;15.60;9.70;;;5.30;99.90;;;;;;5071114;28;20219;-47
2020/12/31 09:08:06;;;;;;;13.25;8.63;;;5.30;99.90;;;;;;5070773;28;20212;-48
2020/12/31 09:10:34;;;;;;;9.82;8.68;;;5.50;99.90;;;;;;5071306;28;20612;-48
2020/12/31 09:13:02;;;;;;;10.80;8.48;;;5.30;99.90;;;;;;5070679;28;20194;-48
2020/12/31 09:15:30;;;;;;;11.18;9.27;;;5.50;99.90;;;;;;5071027;28;20660;-48
2020/12/31 09:17:57;;;;;;;11.52;8.57;;;5.60;99.90;;;;;;5084120;22;20234;-47
2020/12/31 09:20:25;;;;;;;14.25;9.48;;;5.30;99.90;;;;;;5071114;28;20206;-48
2020/12/31 09:22:53;;;;;;;13.10;9.93;;;5.30;99.90;;;;;;5071946;28;20195;-47
2020/12/31 09:25:20;;;;;;;11.82;8.52;;;5.70;99.90;;;;;;5072116;28;20206;-48
2020/12/31 09:27:47;;;;;;;11.02;8.45;;;5.70;99.90;;;;;;5072318;28;20219;-47
2020/12/31 09:30:17;;;;;;;11.30;8.18;;;5.50;99.90;;;;;;5071839;28;20191;-47
2020/12/31 09:32:48;;;;;;;9.95;7.65;;;5.50;99.90;;;;;;5071088;28;20203;-48
2020/12/31 09:35:14;;;;;;;9.15;7.88;;;5.50;99.90;;;;;;5071895;28;20208;-46
2020/12/31 09:37:49;;;;;;;9.45;8.35;;;5.50;99.90;;;;;;5072401;28;20195;-47
2020/12/31 09:40:15;;;;;;;8.63;7.55;;;5.80;99.90;;;;;;5072054;28;20191;-48
2020/12/31 09:42:42;;;;;;;9.25;7.80;;;5.80;99.90;;;;;;5071632;28;20233;-46
2020/12/31 09:45:09;;;;;;;10.20;8.68;;;5.60;99.90;;;;;;5071455;28;20194;-44
2020/12/31 09:47:35;;;;;;;9.77;7.13;;;5.80;99.90;;;;;;5071471;28;20221;-46
2020/12/31 09:50:03;;;;;;;10.32;9.18;;;6.00;99.90;;;;;;5071120;28;20240;-46
2020/12/31 09:52:32;;;;;;;10.43;8.45;;;5.70;99.90;;;;;;5071030;28;20667;-47
2020/12/31 09:54:59;;;;;;;9.88;8.00;;;6.00;99.90;;;;;;5071344;28;20195;-47
2020/12/31 09:57:25;;;;;;;8.20;7.30;;;6.00;99.90;;;;;;5072026;28;20191;-46
2020/12/31 09:59:52;;;;;;;9.10;7.80;;;6.20;99.90;;;;;;5071864;28;20215;-47
2020/12/31 10:02:18;;;;;;;8.60;7.55;;;6.00;99.90;;;;;;5071587;28;20195;-44
2020/12/31 10:04:45;;;;;;;9.10;8.18;;;6.00;99.90;;;;;;5071656;28;20200;-46
2020/12/31 10:07:12;;;;;;;8.68;7.88;;;6.20;99.90;;;;;;5071109;28;20203;-47
2020/12/31 10:09:39;;;;;;;9.27;7.83;;;6.10;99.90;;;;;;5069909;28;20216;-46
2020/12/31 10:12:05;;;;;;;10.95;7.38;;;6.40;99.90;;;;;;5069684;28;20465;-48
2020/12/31 10:14:32;;;;;;;8.73;7.83;;;6.10;99.90;;;;;;5071006;28;20197;-45
2020/12/31 10:16:58;;;;;;;8.48;7.05;;;6.30;99.90;;;;;;5071432;28;20484;-47
2020/12/31 10:19:25;;;;;;;8.00;7.20;;;6.30;99.90;;;;;;5070893;28;20235;-46
2020/12/31 10:21:51;;;;;;;11.18;7.53;;;6.10;99.90;;;;;;5071346;28;20429;-47
2020/12/31 10:24:19;;;;;;;8.70;5.97;;;6.20;99.90;;;;;;5069211;28;20276;-46
2020/12/31 10:26:46;;;;;;;9.00;7.10;;;6.30;99.90;;;;;;5070840;28;20188;-46
2020/12/31 10:29:14;;;;;;;10.38;7.55;;;6.30;99.90;;;;;;5071119;28;20431;-44
2020/12/31 10:31:42;;;;;;;10.55;7.50;;;6.40;99.90;;;;;;5070861;28;20305;-47
2020/12/31 10:34:09;;;;;;;14.05;9.60;;;6.60;99.90;;;;;;5074077;28;20245;-44
2020/12/31 10:36:35;;;;;;;13.70;9.20;;;6.40;99.90;;;;;;5074475;28;20212;-46
2020/12/31 10:39:02;;;;;;;10.17;7.33;;;6.50;99.90;;;;;;5074665;28;20671;-47
2020/12/31 10:41:31;;;;;;;12.23;8.50;;;6.40;99.90;;;;;;5074917;28;20492;-47
2020/12/31 10:43:58;;;;;;;14.20;7.60;;;6.50;99.90;;;;;;5074479;28;20441;-47
2020/12/31 10:46:25;;;;;;;9.05;7.70;;;6.40;99.90;;;;;;5075044;28;20206;-48
2020/12/31 10:48:52;;;;;;;7.10;5.97;;;6.50;99.90;;;;;;5074932;28;20231;-47
2020/12/31 10:51:19;;;;;;;14.70;6.90;;;6.40;99.90;;;;;;5074688;28;20454;-46
2020/12/31 10:53:46;;;;;;;8.65;7.15;;;6.50;99.90;;;;;;5074047;28;20521;-47
2020/12/31 10:56:18;;;;;;;11.43;7.83;;;6.30;99.90;;;;;;5074199;28;20220;-47
2020/12/31 10:58:46;;;;;;;7.18;6.22;;;6.60;99.90;;;;;;5074097;28;20792;-46
2020/12/31 11:01:14;;;;;;;7.93;6.70;;;6.30;99.90;;;;;;5074453;28;20200;-48
2020/12/31 11:03:42;;;;;;;9.83;6.37;;;6.50;99.90;;;;;;5072556;28;20441;-46
2020/12/31 11:06:08;;;;;;;8.53;6.90;;;6.50;99.90;;;;;;5073078;28;20453;-44
2020/12/31 11:08:35;;;;;;;7.72;6.95;;;6.50;99.90;;;;;;5074077;28;20825;-45
2020/12/31 11:11:01;;;;;;;9.40;8.50;;;6.70;99.90;;;;;;5074000;28;20223;-47
2020/12/31 11:13:28;;;;;;;14.07;7.70;;;6.40;99.90;;;;;;5074182;28;20463;-45
2020/12/31 11:15:55;;;;;;;8.10;6.68;;;6.70;99.90;;;;;;5075191;28;20950;-48
2020/12/31 11:18:22;;;;;;;7.97;6.20;;;6.70;99.90;;;;;;5074841;28;20303;-47
2020/12/31 11:20:52;;;;;;;8.17;6.03;;;6.70;99.90;;;;;;5073809;28;20455;-45
2020/12/31 11:23:19;;;;;;;6.67;5.97;;;6.60;99.90;;;;;;5074052;28;20426;-48
2020/12/31 11:25:46;;;;;;;9.13;7.40;;;6.70;99.90;;;;;;5073222;28;20481;-47
2020/12/31 11:28:12;;;;;;;9.07;7.05;;;6.80;99.90;;;;;;5074922;28;20424;-47
2020/12/31 11:30:39;;;;;;;8.20;6.70;;;6.80;99.90;;;;;;5074495;28;20226;-46
2020/12/31 11:33:07;;;;;;;7.27;6.53;;;6.70;99.90;;;;;;5073507;28;20420;-47
2020/12/31 11:35:33;;;;;;;7.33;6.63;;;6.70;99.90;;;;;;5074425;28;20501;-47
2020/12/31 11:38:00;;;;;;;6.70;5.87;;;6.70;99.90;;;;;;5073541;28;20424;-47
2020/12/31 11:40:26;;;;;;;7.07;6.37;;;6.60;99.90;;;;;;5073578;28;20409;-46
2020/12/31 11:42:53;;;;;;;9.20;6.73;;;6.60;99.90;;;;;;5073067;28;20477;-46
2020/12/31 11:45:19;;;;;;;8.00;6.80;;;6.30;99.90;;;;;;5071305;28;20572;-48
2020/12/31 11:47:46;;;;;;;9.30;7.63;;;6.60;99.90;;;;;;5073543;28;20944;-47
2020/12/31 11:50:13;;;;;;;10.20;9.00;;;6.30;99.90;;;;;;5074261;28;20377;-48
2020/12/31 11:52:40;;;;;;;9.25;7.85;;;6.30;99.90;;;;;;5073709;28;20497;-46
2020/12/31 11:55:07;;;;;;;9.43;7.33;;;6.40;99.90;;;;;;5073733;28;20283;-47
2020/12/31 11:57:34;;;;;;;7.80;6.80;;;6.40;99.90;;;;;;5073475;28;20522;-45
2020/12/31 12:00:00;;;;;;;10.40;6.43;;;6.30;99.90;;;;;;5073858;28;20449;-47
2020/12/31 12:02:27;;;;;;;7.70;6.77;;;6.50;99.90;;;;;;5073245;28;20429;-48
2020/12/31 12:04:53;;;;;;;9.70;8.70;;;6.50;99.90;;;;;;5073078;28;20466;-47
2020/12/31 12:07:21;;;;;;;10.50;7.70;;;6.50;99.90;;;;;;5072769;28;20907;-46
2020/12/31 12:09:47;;;;;;;8.45;7.05;;;6.60;99.90;;;;;;5072743;28;20545;-48
2020/12/31 12:12:14;;;;;;;9.57;8.10;;;6.40;99.90;;;;;;5073408;28;20738;-47
2020/12/31 12:14:40;;;;;;;7.70;6.90;;;6.40;99.90;;;;;;5073127;28;20619;-46
2020/12/31 12:17:07;;;;;;;12.73;7.83;;;6.40;99.90;;;;;;5073669;28;20448;-45
2020/12/31 12:19:33;;;;;;;8.20;7.23;;;6.50;99.90;;;;;;5072653;28;20460;-46
2020/12/31 12:22:01;;;;;;;8.40;7.17;;;6.70;99.90;;;;;;5071674;28;20484;-48
2020/12/31 12:24:28;;;;;;;12.00;8.18;;;6.70;99.90;;;;;;5072504;28;20420;-46
2020/12/31 12:26:55;;;;;;;8.93;7.20;;;6.70;99.90;;;;;;5072208;28;20196;-47
2020/12/31 12:29:22;;;;;;;8.40;7.53;;;6.40;99.90;;;;;;5072278;28;20459;-48
2020/12/31 12:31:49;;;;;;;10.70;8.40;;;6.70;99.90;;;;;;5072706;28;20434;-47
2020/12/31 12:34:15;;;;;;;7.93;7.17;;;6.40;99.90;;;;;;5072163;28;20317;-47
2020/12/31 12:36:43;;;;;;;8.37;7.57;;;6.70;99.90;;;;;;5072245;28;20481;-47
2020/12/31 12:39:09;;;;;;;9.77;6.90;;;6.40;99.90;;;;;;5072263;28;20980;-46
2020/12/31 12:41:37;;;;;;;7.40;6.70;;;6.30;99.90;;;;;;5072483;28;20404;-46
2020/12/31 12:44:03;;;;;;;9.40;7.80;;;6.60;99.90;;;;;;5072269;28;20675;-47
2020/12/31 12:46:30;;;;;;;8.47;7.10;;;6.30;99.90;;;;;;5072809;28;20508;-44
2020/12/31 12:48:56;;;;;;;9.63;8.30;;;6.50;99.90;;;;;;5074261;28;20530;-46
2020/12/31 12:51:23;;;;;;;11.90;7.60;;;6.60;99.90;;;;;;5075527;28;20950;-49
2020/12/31 12:53:53;;;;;;;11.77;7.93;;;6.40;99.90;;;;;;5074219;28;20480;-47